Paris, Iowa
Current Conditions -  °F | °C
As of 10:15 AM on Thursday 23 Oct 2014 (Local Time) from KMXO Reporting Station
Overcast Overcast  
Wind Chill: 42°   Ceiling: 6500
Heat Index: 46°   Visibility: 10mi
Dew Point: 45°   Wind: 8mph
Humidity: 93%   Direction: 160°SSE
Pressure: 30.1"   Gusts: NA
Location:  42.1737°N, 91.5309°W
Report Text: KMXO 231515Z AUTO 16007KT 10SM OVC065 08/07 A3010 RMK AO2
Loading
Personal Weather Stations






























Interactive Weather Map
Tropical Storm Tracking
New forecast layout! Learn more

10-Day Weather Forecast

Advertisements
Track Severe Weather on mobile